Flight Track Log - Related Links

Times and Time Zones

All times are in EDT time to prevent confusion due to time zone crossing. See the AMF1026 flight status page for this flight to view local times or setup timezone preferences in your user account.

Time Position Orientation Groundspeed Altitude Reporting Facility
EDT Latitude Longitude Course Direction KTS MPH feet Rate Location/Type
Mon 08:50:18 PM 42.7339 -73.8081 233° Southwest 137 158 1,000  Level Boston Center
Mon 08:51:30 PM 42.7064 -73.8583 233° Southwest 177 204 3,300 1,792 Climbing Boston Center
Mon 08:52:52 PM 42.7053 -73.9375 269° West 188 216 5,600 1,690 Climbing Boston Center
Mon 08:53:52 PM 42.7106 -74.0056 276° West 188 216 7,300 1,686 Climbing Boston Center
Mon 08:54:53 PM 42.7139 -74.0706 274° West 183 211 9,000 1,587 Climbing Boston Center
Mon 08:55:53 PM 42.7233 -74.1358 281° West 171 197 10,500 1,636 Climbing Boston Center
Mon 08:56:54 PM 42.7369 -74.1956 276° West 171 197 12,300 1,587 Climbing Boston Center
Mon 08:57:00 PM 42.7305 -74.2292 276° West  Level FlightAware Approximate
Mon 08:57:54 PM 42.7467 -74.2494 284° West 155 178 13,700  Level Boston Center
Mon 08:58:52 PM 42.7475 -74.3147 271° West 162 186 14,400 807 Climbing Boston Center
Mon 08:59:53 PM 42.7342 -74.3764 254° West 167 192 15,300 787 Climbing Boston Center
Mon 09:00:54 PM 42.7122 -74.4408 242° Southwest 185 213 16,000 176 Climbing Boston Center
Mon 09:01:00 PM 42.7019 -74.4594 242° Southwest  Level FlightAware Approximate
Mon 09:03:00 PM 42.6481 -74.5943 240° Southwest  Level FlightAware Approximate
Mon 09:03:52 PM 42.6353 -74.6528 240° Southwest 218 251 16,000  Level Boston Center
Mon 09:04:53 PM 42.6089 -74.7222 243° Southwest 212 244 16,100  Climbing Boston Center
Mon 09:05:52 PM 42.5844 -74.7975 246° West 217 250 16,000  Descending Boston Center
Mon 09:06:53 PM 42.5706 -74.8533 251° West 217 250 16,100 50 Climbing Boston Center
Mon 09:07:53 PM 42.5519 -74.9458 255° West 222 255 16,100  Level Boston Center
Mon 09:08:53 PM 42.5275 -75.0208 246° West 222 255 16,100 -50 Level Boston Center
Mon 09:09:53 PM 42.5047 -75.0989 248° West 222 255 16,000  Descending Boston Center
Mon 09:10:54 PM 42.4864 -75.1711 251° West 222 255 16,100  Climbing Boston Center
Mon 09:11:54 PM 42.4700 -75.2492 254° West 222 255 16,000  Descending Boston Center
Mon 09:13:39 PM 42.4125 -75.3822 240° Southwest 218 251 16,100  Climbing New York Center
Mon 09:14:39 PM 42.3808 -75.4472 237° Southwest 218 251 16,000 -50 Descending New York Center
Mon 09:15:40 PM 42.3489 -75.5153 238° Southwest 218 251 16,000  Level New York Center
Mon 09:16:40 PM 42.3150 -75.5828 236° Southwest 224 258 16,000  Level New York Center
Mon 09:17:39 PM 42.2869 -75.6564 243° Southwest 224 258 16,000  Level New York Center
Mon 09:18:40 PM 42.2631 -75.7331 247° West 224 258 16,000  Level New York Center
Mon 09:19:40 PM 42.2475 -75.8075 254° West 218 251 16,000  Level New York Center
Mon 09:20:41 PM 42.2317 -75.8875 255° West 218 251 16,000  Level New York Center
Mon 09:21:38 PM 42.2136 -75.9644 252° West 218 251 16,000  Level New York Center
Mon 09:22:39 PM 42.1897 -76.0383 246° West 223 257 16,000  Level New York Center
Mon 09:23:39 PM 42.1633 -76.1144 245° Southwest 223 257 16,000  Level New York Center
Mon 09:24:38 PM 42.1350 -76.1875 242° Southwest 229 264 16,000  Level New York Center
Mon 09:25:39 PM 42.1128 -76.2642 249° West 229 264 16,000  Level New York Center
Mon 09:26:39 PM 42.0864 -76.3372 244° Southwest 229 264 16,000  Level New York Center
Mon 09:27:40 PM 42.0642 -76.4136 249° West 229 264 16,000  Level New York Center
Mon 09:28:41 PM 42.0439 -76.4903 250° West 229 264 16,000  Level New York Center
Mon 09:29:39 PM 42.0214 -76.5664 248° West 229 264 16,000  Level New York Center
Mon 09:30:38 PM 41.9967 -76.6453 247° West 229 264 16,000  Level New York Center
Mon 09:31:39 PM 41.9703 -76.7181 244° Southwest 229 264 16,000  Level New York Center
Mon 09:32:40 PM 41.9436 -76.7911 244° Southwest 229 264 16,000  Level New York Center
Mon 09:33:41 PM 41.9128 -76.8636 240° Southwest 229 264 16,000  Level New York Center
Mon 09:36:09 PM 41.8431 -77.0514 244° Southwest 222 255 16,000  Level Cleveland Center
Mon 09:37:09 PM 41.8183 -77.1225 245° Southwest 222 255 16,000  Level Cleveland Center
Mon 09:38:09 PM 41.7956 -77.1989 248° West 222 255 16,000  Level Cleveland Center
Mon 09:39:09 PM 41.7725 -77.2697 246° West 222 255 16,000  Level Cleveland Center
Mon 09:40:09 PM 41.7497 -77.3461 248° West 222 255 16,000  Level Cleveland Center
Mon 09:41:09 PM 41.7267 -77.4197 247° West 222 255 16,000  Level Cleveland Center
Mon 09:42:09 PM 41.6994 -77.4906 243° Southwest 222 255 16,000 50 Level Cleveland Center
Mon 09:43:09 PM 41.6697 -77.5531 238° Southwest 227 261 16,100 50 Climbing Cleveland Center
Mon 09:44:09 PM 41.6383 -77.6186 237° Southwest 227 261 16,100  Level Cleveland Center
Mon 09:45:09 PM 41.6044 -77.6839 235° Southwest 227 261 16,100  Level Cleveland Center
Mon 09:46:09 PM 41.5811 -77.7572 247° West 216 249 16,100  Level Cleveland Center
Mon 09:47:09 PM 41.5622 -77.8300 251° West 210 242 16,100  Level Cleveland Center
Mon 09:48:09 PM 41.5408 -77.9031 249° West 210 242 16,100  Level Cleveland Center
Mon 09:49:09 PM 41.5111 -77.9683 239° Southwest 210 242 16,100  Level Cleveland Center
Mon 09:50:09 PM 41.4750 -78.0333 233° Southwest 217 250 16,100  Level Cleveland Center
Mon 09:51:09 PM 41.4411 -78.0956 234° Southwest 217 250 16,100  Level Cleveland Center
Mon 09:52:09 PM 41.4069 -78.1578 234° Southwest 217 250 16,100  Level Cleveland Center
Mon 09:53:09 PM 41.3875 -78.2306 250° West 217 250 16,100  Level Cleveland Center
Mon 09:54:09 PM 41.3767 -78.3058 259° West 211 243 16,100  Level Cleveland Center
Mon 09:55:09 PM 41.3572 -78.3811 251° West 211 243 16,100  Level Cleveland Center
Mon 09:56:09 PM 41.3314 -78.4511 244° Southwest 211 243 16,100  Level Cleveland Center
Mon 09:57:09 PM 41.3097 -78.5208 248° West 211 243 16,100  Level Cleveland Center
Mon 09:58:09 PM 41.2883 -78.5961 249° West 216 249 16,100  Level Cleveland Center
Mon 09:59:09 PM 41.2686 -78.6658 249° West 216 249 16,100  Level Cleveland Center
Mon 10:00:09 PM 41.2489 -78.7383 250° West 216 249 16,100  Level Cleveland Center
Mon 10:01:09 PM 41.2272 -78.8133 249° West 216 249 16,100  Level Cleveland Center
Mon 10:02:09 PM 41.2075 -78.8883 251° West 216 249 16,100  Level Cleveland Center
Mon 10:03:09 PM 41.1875 -78.9581 249° West 216 249 16,100  Level Cleveland Center
Mon 10:04:09 PM 41.1697 -79.0303 252° West 216 249 16,100  Level Cleveland Center
Mon 10:05:09 PM 41.1519 -79.1050 252° West 216 249 16,100  Level Cleveland Center
Mon 10:06:09 PM 41.1322 -79.1772 250° West 211 243 16,100  Level Cleveland Center
Mon 10:07:09 PM 41.1142 -79.2519 252° West 216 249 16,100 -50 Level Cleveland Center
Mon 10:08:09 PM 41.0900 -79.3242 246° West 216 249 16,000 -50 Descending Cleveland Center
Mon 10:09:09 PM 41.0658 -79.3961 246° West 216 249 16,000  Level Cleveland Center
Mon 10:10:09 PM 41.0436 -79.4681 248° West 216 249 16,000  Level Cleveland Center
Mon 10:11:09 PM 41.0192 -79.5372 245° Southwest 216 249 16,000  Level Cleveland Center
Mon 10:12:09 PM 40.9992 -79.6092 250° West 216 249 16,000  Level Cleveland Center
Mon 10:13:09 PM 40.9767 -79.6811 248° West 216 249 16,000  Level Cleveland Center
Mon 10:14:09 PM 40.9522 -79.7528 246° West 216 249 16,000  Level Cleveland Center
Mon 10:15:09 PM 40.9297 -79.8247 248° West 216 249 16,000  Level Cleveland Center
Mon 10:16:09 PM 40.9094 -79.8964 249° West 216 249 16,000  Level Cleveland Center
Mon 10:17:09 PM 40.8931 -79.9706 254° West 216 249 16,000  Level Cleveland Center
Mon 10:18:09 PM 40.8789 -80.0447 256° West 216 249 16,000  Level Cleveland Center
Mon 10:19:09 PM 40.8564 -80.1247 250° West 211 243 16,000  Level Cleveland Center
Mon 10:20:09 PM 40.8294 -80.1961 244° Southwest 211 243 16,000  Level Cleveland Center
Mon 10:21:09 PM 40.8006 -80.2650 241° Southwest 217 250 16,000  Level Cleveland Center
Mon 10:22:09 PM 40.7611 -80.3281 230° Southwest 222 255 16,000  Level Cleveland Center
Mon 10:23:09 PM 40.7258 -80.3914 234° Southwest 229 264 16,000  Level Cleveland Center
Mon 10:24:09 PM 40.6883 -80.4517 231° Southwest 224 258 16,000  Level Cleveland Center
Mon 10:25:09 PM 40.6550 -80.5064 231° Southwest 224 258 16,000  Level Cleveland Center
Mon 10:26:09 PM 40.6175 -80.5694 232° Southwest 224 258 16,000  Level Cleveland Center
Mon 10:27:09 PM 40.5842 -80.6322 235° Southwest 218 251 16,000  Level Cleveland Center
Mon 10:28:09 PM 40.5486 -80.6950 233° Southwest 213 245 16,000  Level Cleveland Center
Mon 10:29:09 PM 40.5153 -80.7606 236° Southwest 213 245 16,000  Level Cleveland Center
Mon 10:30:09 PM 40.4817 -80.8286 237° Southwest 213 245 16,000  Level Cleveland Center
Mon 10:31:09 PM 40.4483 -80.8942 236° Southwest 218 251 16,000  Level Cleveland Center
Mon 10:32:09 PM 40.4125 -80.9594 234° Southwest 218 251 16,000  Level Cleveland Center
Mon 10:33:09 PM 40.3789 -81.0300 238° Southwest 223 257 16,000  Level Cleveland Center
Mon 10:34:09 PM 40.3453 -81.0981 237° Southwest 223 257 16,000  Level Cleveland Center
Mon 10:35:09 PM 40.3136 -81.1711 240° Southwest 229 264 16,000  Level Cleveland Center
Mon 10:36:07 PM 40.2833 -81.2381 239° Southwest 234 269 16,000  Level Indianapolis Center
Mon 10:37:09 PM 40.2508 -81.3106 240° Southwest 232 267 16,000 488 Level Indianapolis Center
Mon 10:38:10 PM 40.2192 -81.3828 240° Southwest 229 264 17,000 934 Climbing Indianapolis Center
Mon 10:39:11 PM 40.1794 -81.4494 232° Southwest 208 239 17,900 590 Climbing Indianapolis Center
Mon 10:40:12 PM 40.1364 -81.5039 224° Southwest 211 243 18,200 541 Climbing Indianapolis Center
Mon 10:41:13 PM 40.0953 -81.5547 223° Southwest 207 238 19,000 590 Climbing Indianapolis Center
Mon 10:42:14 PM 40.0547 -81.6047 223° Southwest 201 231 19,400 492 Climbing Indianapolis Center
Mon 10:43:15 PM 40.0122 -81.6528 221° Southwest 200 230 20,000 293 Climbing Indianapolis Center
Mon 10:44:17 PM 39.9686 -81.7033 222° Southwest 207 238 20,000  Level Indianapolis Center
Mon 10:45:18 PM 39.9272 -81.7464 219° Southwest 210 242 20,000  Level Indianapolis Center
Mon 10:46:19 PM 39.8842 -81.7983 223° Southwest 210 242 20,000  Level Indianapolis Center
Mon 10:47:20 PM 39.8597 -81.8725 247° West 221 254 20,000  Level Indianapolis Center
Mon 10:48:21 PM 39.8381 -81.9611 252° West 216 249 20,000  Level Indianapolis Center
Mon 10:49:23 PM 39.8239 -82.0331 256° West 209 241 20,000  Level Indianapolis Center
Mon 10:50:24 PM 39.8119 -82.1075 258° West 210 242 20,000  Level Indianapolis Center
Mon 10:51:25 PM 39.7986 -82.1869 258° West 221 254 20,000  Level Indianapolis Center
Mon 10:52:26 PM 39.7864 -82.2653 259° West 221 254 20,000  Level Indianapolis Center
Mon 10:53:28 PM 39.7694 -82.3439 254° West 226 260 20,000  Level Indianapolis Center
Mon 10:54:29 PM 39.7603 -82.4225 261° West 222 255 20,000  Level Indianapolis Center
Mon 10:55:31 PM 39.7533 -82.5017 264° West 223 257 20,000  Level Indianapolis Center
Mon 10:56:32 PM 39.7319 -82.5778 250° West 222 255 20,000  Level Indianapolis Center
Mon 10:57:33 PM 39.7072 -82.6647 250° West 217 250 20,000  Level Indianapolis Center
Mon 10:58:35 PM 39.6758 -82.7286 237° Southwest 213 245 20,000  Level Indianapolis Center
Mon 10:59:36 PM 39.6344 -82.7850 226° Southwest 216 249 20,000  Level Indianapolis Center
Mon 11:00:37 PM 39.5936 -82.8400 226° Southwest 215 247 20,000 -293 Level Indianapolis Center
Mon 11:02:40 PM 39.5117 -82.9547 227° Southwest 219 252 19,100 -783 Descending Indianapolis Center
Mon 11:03:41 PM 39.4603 -83.0197 224° Southwest 252 290 17,600 -1,082 Descending Indianapolis Center
Mon 11:04:42 PM 39.4056 -83.0833 222° Southwest 263 303 16,900 -439 Descending Indianapolis Center
Mon 11:05:44 PM 39.3597 -83.1475 227° Southwest 248 285 16,700 -293 Descending Indianapolis Center
Mon 11:06:45 PM 39.3189 -83.2133 231° Southwest 237 273 16,300 -295 Descending Indianapolis Center
Mon 11:07:46 PM 39.2883 -83.3025 246° West 231 266 16,100 -537 Descending Indianapolis Center
Mon 11:08:48 PM 39.2586 -83.3719 241° Southwest 224 258 15,200 -927 Descending Indianapolis Center
Mon 11:09:49 PM 39.2397 -83.4500 253° West 230 265 14,200 -885 Descending Indianapolis Center
Mon 11:10:50 PM 39.2222 -83.5317 255° West 236 272 13,400 -836 Descending Indianapolis Center
Mon 11:11:51 PM 39.2089 -83.6181 259° West 243 280 12,500 -829 Descending Indianapolis Center
Mon 11:12:53 PM 39.1928 -83.7056 257° West 248 285 11,700 -683 Descending Indianapolis Center
Mon 11:13:54 PM 39.1783 -83.7914 258° West 247 284 11,100 -295 Descending Indianapolis Center
Mon 11:14:55 PM 39.1697 -83.8919 264° West 248 285 11,100 -49 Level Indianapolis Center
Mon 11:15:57 PM 39.1719 -83.9775 272° West 243 280 11,000 -341 Descending Indianapolis Center
Mon 11:16:58 PM 39.1761 -84.0639 274° West 244 281 10,400 -689 Descending Indianapolis Center
Mon 11:17:59 PM 39.1756 -84.1481 270° West 238 274 9,600 -787 Descending Indianapolis Center
Mon 11:19:00 PM 39.1778 -84.2219 272° West 204 235 8,800 -976 Descending Indianapolis Center
Mon 11:20:02 PM 39.1753 -84.2919 267° West 204 235 7,600 -1,171 Descending Indianapolis Center
Mon 11:21:03 PM 39.1708 -84.3731 266° West 219 252 6,400 -1,082 Descending Indianapolis Center
Mon 11:22:04 PM 39.1664 -84.4506 266° West 220 253 5,400 -780 Descending Indianapolis Center
Mon 11:23:06 PM 39.1675 -84.5219 271° West 211 243 4,800 -488 Descending Indianapolis Center
Mon 11:24:07 PM 39.1689 -84.6050 271° West 207 238 4,400 -868 Descending Indianapolis Center
Mon 11:25:45 PM 39.1667 -84.7000 268° West 194 223 2,500 -878 Descending Cincinnati TRACON
Mon 11:26:51 PM 39.1167 -84.6833 165° South 198 228 2,000 -455 Descending Cincinnati TRACON
Mon 11:28:00 PM 39.0487 -84.6697 171° South  Level FlightAware Approximate
Mon 11:35:00 PM 39.0488 -84.6678 201° Southwest  Level Estimated

Login

Don't have an account? Register now (free) for customized features, flight alerts, and more!